sensor_id;sensor_type;location;lat;lon;timestamp;temperature;humidity
25616;DHT22;13482;48.234;13.006;2023-04-01T00:00:07;11.70;68.20
25616;DHT22;13482;48.234;13.006;2023-04-01T00:02:36;11.70;68.10
25616;DHT22;13482;48.234;13.006;2023-04-01T00:05:03;11.70;68.10
25616;DHT22;13482;48.234;13.006;2023-04-01T00:07:32;11.70;68.20
25616;DHT22;13482;48.234;13.006;2023-04-01T00:09:59;11.70;68.20
25616;DHT22;13482;48.234;13.006;2023-04-01T00:12:27;11.70;68.20
25616;DHT22;13482;48.234;13.006;2023-04-01T00:14:54;11.70;68.20
25616;DHT22;13482;48.234;13.006;2023-04-01T00:17:21;11.70;68.30
25616;DHT22;13482;48.234;13.006;2023-04-01T00:19:49;11.80;68.40
25616;DHT22;13482;48.234;13.006;2023-04-01T00:22:16;11.70;68.10
25616;DHT22;13482;48.234;13.006;2023-04-01T00:24:43;11.80;68.30
25616;DHT22;13482;48.234;13.006;2023-04-01T00:27:10;11.80;68.40
25616;DHT22;13482;48.234;13.006;2023-04-01T00:29:38;11.80;68.30
25616;DHT22;13482;48.234;13.006;2023-04-01T00:32:08;11.80;68.20
25616;DHT22;13482;48.234;13.006;2023-04-01T00:34:35;11.80;68.30
25616;DHT22;13482;48.234;13.006;2023-04-01T00:37:02;11.90;68.20
25616;DHT22;13482;48.234;13.006;2023-04-01T00:39:30;11.90;68.20
25616;DHT22;13482;48.234;13.006;2023-04-01T00:41:59;11.90;68.00
25616;DHT22;13482;48.234;13.006;2023-04-01T00:44:30;11.90;68.20
25616;DHT22;13482;48.234;13.006;2023-04-01T00:47:00;11.90;68.10
25616;DHT22;13482;48.234;13.006;2023-04-01T00:49:35;11.90;68.10
25616;DHT22;13482;48.234;13.006;2023-04-01T00:52:05;12.00;68.20
25616;DHT22;13482;48.234;13.006;2023-04-01T00:54:35;12.00;68.10
25616;DHT22;13482;48.234;13.006;2023-04-01T00:57:09;12.00;68.10
25616;DHT22;13482;48.234;13.006;2023-04-01T00:59:49;12.00;68.20
25616;DHT22;13482;48.234;13.006;2023-04-01T01:02:19;12.00;68.10
25616;DHT22;13482;48.234;13.006;2023-04-01T01:04:47;12.00;68.20
25616;DHT22;13482;48.234;13.006;2023-04-01T01:07:52;12.00;68.00
25616;DHT22;13482;48.234;13.006;2023-04-01T01:10:36;12.10;67.90
25616;DHT22;13482;48.234;13.006;2023-04-01T01:16:05;12.10;68.10
25616;DHT22;13482;48.234;13.006;2023-04-01T01:18:53;12.10;68.10
25616;DHT22;13482;48.234;13.006;2023-04-01T01:24:13;12.10;68.00
25616;DHT22;13482;48.234;13.006;2023-04-01T01:27:08;12.10;68.10
25616;DHT22;13482;48.234;13.006;2023-04-01T01:35:48;12.10;68.20
25616;DHT22;13482;48.234;13.006;2023-04-01T01:38:19;12.10;68.20
25616;DHT22;13482;48.234;13.006;2023-04-01T01:40:50;12.10;68.20
25616;DHT22;13482;48.234;13.006;2023-04-01T01:43:31;12.10;68.30
25616;DHT22;13482;48.234;13.006;2023-04-01T01:46:10;12.20;68.00
25616;DHT22;13482;48.234;13.006;2023-04-01T01:48:41;12.10;68.00
25616;DHT22;13482;48.234;13.006;2023-04-01T01:51:09;12.20;68.30
25616;DHT22;13482;48.234;13.006;2023-04-01T01:53:37;12.20;68.30
25616;DHT22;13482;48.234;13.006;2023-04-01T01:56:05;12.20;68.20
25616;DHT22;13482;48.234;13.006;2023-04-01T01:58:35;12.20;68.20
25616;DHT22;13482;48.234;13.006;2023-04-01T02:03:53;12.20;68.20
25616;DHT22;13482;48.234;13.006;2023-04-01T02:06:24;12.20;68.20
25616;DHT22;13482;48.234;13.006;2023-04-01T02:09:00;12.20;68.10
25616;DHT22;13482;48.234;13.006;2023-04-01T02:11:49;12.20;68.20
25616;DHT22;13482;48.234;13.006;2023-04-01T02:14:27;12.30;68.10
25616;DHT22;13482;48.234;13.006;2023-04-01T02:17:10;12.30;68.00
25616;DHT22;13482;48.234;13.006;2023-04-01T02:19:51;12.30;68.10
25616;DHT22;13482;48.234;13.006;2023-04-01T02:22:24;12.30;68.20
25616;DHT22;13482;48.234;13.006;2023-04-01T02:24:58;12.30;68.10
25616;DHT22;13482;48.234;13.006;2023-04-01T02:27:28;12.30;68.20
25616;DHT22;13482;48.234;13.006;2023-04-01T02:29:57;12.30;68.20
25616;DHT22;13482;48.234;13.006;2023-04-01T02:32:25;12.30;68.10
25616;DHT22;13482;48.234;13.006;2023-04-01T02:34:53;12.30;68.10
25616;DHT22;13482;48.234;13.006;2023-04-01T02:37:21;12.30;68.10
25616;DHT22;13482;48.234;13.006;2023-04-01T02:39:48;12.30;68.20
25616;DHT22;13482;48.234;13.006;2023-04-01T02:42:15;12.30;68.00
25616;DHT22;13482;48.234;13.006;2023-04-01T02:44:43;12.30;68.20
25616;DHT22;13482;48.234;13.006;2023-04-01T02:47:10;12.30;68.10
25616;DHT22;13482;48.234;13.006;2023-04-01T02:49:37;12.30;68.10
25616;DHT22;13482;48.234;13.006;2023-04-01T02:52:04;12.30;68.10
25616;DHT22;13482;48.234;13.006;2023-04-01T02:54:31;12.30;68.20
25616;DHT22;13482;48.234;13.006;2023-04-01T02:56:59;12.30;68.20
25616;DHT22;13482;48.234;13.006;2023-04-01T02:59:26;12.30;68.10
25616;DHT22;13482;48.234;13.006;2023-04-01T03:01:53;12.30;68.00
25616;DHT22;13482;48.234;13.006;2023-04-01T03:04:20;12.30;67.90
25616;DHT22;13482;48.234;13.006;2023-04-01T03:06:47;12.30;67.70
25616;DHT22;13482;48.234;13.006;2023-04-01T03:09:14;12.30;67.90
25616;DHT22;13482;48.234;13.006;2023-04-01T03:11:42;12.30;67.90
25616;DHT22;13482;48.234;13.006;2023-04-01T03:14:09;12.30;67.80
25616;DHT22;13482;48.234;13.006;2023-04-01T03:16:37;12.30;67.80
25616;DHT22;13482;48.234;13.006;2023-04-01T03:19:04;12.30;68.00
25616;DHT22;13482;48.234;13.006;2023-04-01T03:21:31;12.30;67.90
25616;DHT22;13482;48.234;13.006;2023-04-01T03:23:58;12.30;68.00
25616;DHT22;13482;48.234;13.006;2023-04-01T03:26:25;12.30;67.90
25616;DHT22;13482;48.234;13.006;2023-04-01T03:28:56;12.30;67.80
25616;DHT22;13482;48.234;13.006;2023-04-01T03:31:23;12.30;67.90
25616;DHT22;13482;48.234;13.006;2023-04-01T03:33:51;12.30;67.90
25616;DHT22;13482;48.234;13.006;2023-04-01T03:36:19;12.30;67.80
25616;DHT22;13482;48.234;13.006;2023-04-01T03:38:46;12.30;67.90
25616;DHT22;13482;48.234;13.006;2023-04-01T03:41:15;12.30;67.90
25616;DHT22;13482;48.234;13.006;2023-04-01T03:43:44;12.30;67.90
25616;DHT22;13482;48.234;13.006;2023-04-01T03:46:11;12.30;68.00
25616;DHT22;13482;48.234;13.006;2023-04-01T03:48:44;12.20;67.90
25616;DHT22;13482;48.234;13.006;2023-04-01T03:51:12;12.20;67.80
25616;DHT22;13482;48.234;13.006;2023-04-01T03:53:39;12.20;67.80
25616;DHT22;13482;48.234;13.006;2023-04-01T03:56:07;12.20;67.90
25616;DHT22;13482;48.234;13.006;2023-04-01T03:58:35;12.20;67.90
25616;DHT22;13482;48.234;13.006;2023-04-01T04:01:03;12.20;67.90
25616;DHT22;13482;48.234;13.006;2023-04-01T04:03:31;12.20;67.70
25616;DHT22;13482;48.234;13.006;2023-04-01T04:05:58;12.20;67.80
25616;DHT22;13482;48.234;13.006;2023-04-01T04:08:25;12.20;67.80
25616;DHT22;13482;48.234;13.006;2023-04-01T04:10:55;12.20;67.90
25616;DHT22;13482;48.234;13.006;2023-04-01T04:13:23;12.20;67.90
25616;DHT22;13482;48.234;13.006;2023-04-01T04:15:50;12.20;67.80
25616;DHT22;13482;48.234;13.006;2023-04-01T04:18:17;12.20;67.80
25616;DHT22;13482;48.234;13.006;2023-04-01T04:20:45;12.20;67.80
25616;DHT22;13482;48.234;13.006;2023-04-01T04:23:15;12.20;67.90
25616;DHT22;13482;48.234;13.006;2023-04-01T04:26:12;12.20;67.80
25616;DHT22;13482;48.234;13.006;2023-04-01T04:28:40;12.20;67.90
25616;DHT22;13482;48.234;13.006;2023-04-01T04:31:07;12.20;67.80
25616;DHT22;13482;48.234;13.006;2023-04-01T04:33:35;12.20;67.80
25616;DHT22;13482;48.234;13.006;2023-04-01T04:36:03;12.20;67.80
25616;DHT22;13482;48.234;13.006;2023-04-01T04:38:31;12.30;68.00
25616;DHT22;13482;48.234;13.006;2023-04-01T04:40:58;12.30;68.00
25616;DHT22;13482;48.234;13.006;2023-04-01T04:43:25;12.30;67.80
25616;DHT22;13482;48.234;13.006;2023-04-01T04:45:53;12.30;67.80
25616;DHT22;13482;48.234;13.006;2023-04-01T04:48:20;12.30;67.80
25616;DHT22;13482;48.234;13.006;2023-04-01T04:50:49;12.30;67.70
25616;DHT22;13482;48.234;13.006;2023-04-01T04:53:18;12.30;67.90
25616;DHT22;13482;48.234;13.006;2023-04-01T04:55:47;12.30;67.80
25616;DHT22;13482;48.234;13.006;2023-04-01T04:58:15;12.30;67.80
25616;DHT22;13482;48.234;13.006;2023-04-01T05:00:44;12.30;67.80
25616;DHT22;13482;48.234;13.006;2023-04-01T05:03:12;12.30;67.80
25616;DHT22;13482;48.234;13.006;2023-04-01T05:05:47;12.30;67.60
25616;DHT22;13482;48.234;13.006;2023-04-01T05:08:16;12.30;67.90
25616;DHT22;13482;48.234;13.006;2023-04-01T05:10:43;12.40;67.60
25616;DHT22;13482;48.234;13.006;2023-04-01T05:13:11;12.40;67.80
25616;DHT22;13482;48.234;13.006;2023-04-01T05:15:39;12.40;67.70
25616;DHT22;13482;48.234;13.006;2023-04-01T05:18:06;12.40;67.70
25616;DHT22;13482;48.234;13.006;2023-04-01T05:20:33;12.40;67.70
25616;DHT22;13482;48.234;13.006;2023-04-01T05:23:01;12.40;67.40
25616;DHT22;13482;48.234;13.006;2023-04-01T05:25:28;12.40;67.50
25616;DHT22;13482;48.234;13.006;2023-04-01T05:27:55;12.40;67.50
25616;DHT22;13482;48.234;13.006;2023-04-01T05:30:22;12.40;67.40
25616;DHT22;13482;48.234;13.006;2023-04-01T05:32:49;12.40;67.60
25616;DHT22;13482;48.234;13.006;2023-04-01T05:35:17;12.40;67.50
25616;DHT22;13482;48.234;13.006;2023-04-01T05:37:44;12.40;67.50
25616;DHT22;13482;48.234;13.006;2023-04-01T05:40:11;12.40;67.40
25616;DHT22;13482;48.234;13.006;2023-04-01T05:42:38;12.40;67.40
25616;DHT22;13482;48.234;13.006;2023-04-01T05:45:06;12.40;67.40
25616;DHT22;13482;48.234;13.006;2023-04-01T05:47:35;12.40;67.20
25616;DHT22;13482;48.234;13.006;2023-04-01T05:50:02;12.40;67.40
25616;DHT22;13482;48.234;13.006;2023-04-01T05:52:30;12.40;67.40
25616;DHT22;13482;48.234;13.006;2023-04-01T05:54:57;12.40;67.40
25616;DHT22;13482;48.234;13.006;2023-04-01T05:57:26;12.40;67.40
25616;DHT22;13482;48.234;13.006;2023-04-01T05:59:53;12.40;67.40
25616;DHT22;13482;48.234;13.006;2023-04-01T06:02:21;12.40;67.30
25616;DHT22;13482;48.234;13.006;2023-04-01T06:04:48;12.40;67.40
25616;DHT22;13482;48.234;13.006;2023-04-01T06:07:18;12.40;67.40
25616;DHT22;13482;48.234;13.006;2023-04-01T06:09:45;12.50;67.50
25616;DHT22;13482;48.234;13.006;2023-04-01T06:18:39;12.50;67.50
25616;DHT22;13482;48.234;13.006;2023-04-01T06:24:25;12.50;67.40
25616;DHT22;13482;48.234;13.006;2023-04-01T06:27:07;12.50;67.40
25616;DHT22;13482;48.234;13.006;2023-04-01T06:30:46;12.50;67.50
25616;DHT22;13482;48.234;13.006;2023-04-01T06:39:38;12.50;67.40
25616;DHT22;13482;48.234;13.006;2023-04-01T06:45:18;12.50;67.40
25616;DHT22;13482;48.234;13.006;2023-04-01T06:51:19;12.50;67.40
25616;DHT22;13482;48.234;13.006;2023-04-01T06:54:21;12.50;67.40
25616;DHT22;13482;48.234;13.006;2023-04-01T06:56:57;12.50;67.50
25616;DHT22;13482;48.234;13.006;2023-04-01T06:59:30;12.60;67.60
25616;DHT22;13482;48.234;13.006;2023-04-01T07:02:09;12.60;67.70
25616;DHT22;13482;48.234;13.006;2023-04-01T07:04:43;12.60;67.50
25616;DHT22;13482;48.234;13.006;2023-04-01T07:07:41;12.60;67.50
25616;DHT22;13482;48.234;13.006;2023-04-01T07:13:09;12.80;67.60
25616;DHT22;13482;48.234;13.006;2023-04-01T07:15:50;12.80;67.90
25616;DHT22;13482;48.234;13.006;2023-04-01T07:18:30;12.90;67.60
25616;DHT22;13482;48.234;13.006;2023-04-01T07:21:04;13.00;67.60
25616;DHT22;13482;48.234;13.006;2023-04-01T07:23:42;13.10;67.90
25616;DHT22;13482;48.234;13.006;2023-04-01T07:26:23;13.20;68.20
25616;DHT22;13482;48.234;13.006;2023-04-01T07:28:52;13.40;68.00
25616;DHT22;13482;48.234;13.006;2023-04-01T07:40:01;14.00;66.20
25616;DHT22;13482;48.234;13.006;2023-04-01T07:48:31;14.20;65.80
25616;DHT22;13482;48.234;13.006;2023-04-01T07:56:25;14.30;65.20
25616;DHT22;13482;48.234;13.006;2023-04-01T08:15:49;14.40;65.10
25616;DHT22;13482;48.234;13.006;2023-04-01T08:21:21;14.40;65.30
25616;DHT22;13482;48.234;13.006;2023-04-01T08:24:00;14.40;65.40
25616;DHT22;13482;48.234;13.006;2023-04-01T08:26:51;14.40;65.40
25616;DHT22;13482;48.234;13.006;2023-04-01T08:29:44;14.40;65.20
25616;DHT22;13482;48.234;13.006;2023-04-01T08:32:25;14.40;64.50
25616;DHT22;13482;48.234;13.006;2023-04-01T08:35:09;14.50;64.20
25616;DHT22;13482;48.234;13.006;2023-04-01T08:37:52;14.50;64.30
25616;DHT22;13482;48.234;13.006;2023-04-01T08:53:37;14.50;63.40
25616;DHT22;13482;48.234;13.006;2023-04-01T08:55:40;14.50;63.90
25616;DHT22;13482;48.234;13.006;2023-04-01T09:16:51;15.00;62.90
25616;DHT22;13482;48.234;13.006;2023-04-01T09:24:33;15.20;62.20
25616;DHT22;13482;48.234;13.006;2023-04-01T09:27:20;15.20;61.50
25616;DHT22;13482;48.234;13.006;2023-04-01T09:35:47;15.40;61.70
25616;DHT22;13482;48.234;13.006;2023-04-01T09:38:42;15.40;62.20
25616;DHT22;13482;48.234;13.006;2023-04-01T09:44:40;15.50;60.50
25616;DHT22;13482;48.234;13.006;2023-04-01T09:50:45;15.60;60.70
25616;DHT22;13482;48.234;13.006;2023-04-01T10:14:24;16.30;59.70
25616;DHT22;13482;48.234;13.006;2023-04-01T10:17:25;16.40;58.90
25616;DHT22;13482;48.234;13.006;2023-04-01T10:36:05;17.10;56.90
25616;DHT22;13482;48.234;13.006;2023-04-01T10:45:13;17.30;58.20
25616;DHT22;13482;48.234;13.006;2023-04-01T10:54:25;17.50;57.00
25616;DHT22;13482;48.234;13.006;2023-04-01T11:00:25;17.50;57.30
25616;DHT22;13482;48.234;13.006;2023-04-01T11:10:19;17.20;57.50
25616;DHT22;13482;48.234;13.006;2023-04-01T11:28:42;16.90;59.80
25616;DHT22;13482;48.234;13.006;2023-04-01T11:43:00;17.00;59.40
25616;DHT22;13482;48.234;13.006;2023-04-01T11:57:05;17.20;58.70
25616;DHT22;13482;48.234;13.006;2023-04-01T11:59:53;17.20;59.00
25616;DHT22;13482;48.234;13.006;2023-04-01T12:05:40;17.20;58.80
25616;DHT22;13482;48.234;13.006;2023-04-01T12:14:20;16.80;59.20
25616;DHT22;13482;48.234;13.006;2023-04-01T12:20:22;16.50;60.00
25616;DHT22;13482;48.234;13.006;2023-04-01T12:41:17;15.80;61.40
25616;DHT22;13482;48.234;13.006;2023-04-01T12:55:44;15.40;62.70
25616;DHT22;13482;48.234;13.006;2023-04-01T13:07:23;15.50;63.00
25616;DHT22;13482;48.234;13.006;2023-04-01T13:10:27;15.60;63.00
25616;DHT22;13482;48.234;13.006;2023-04-01T13:21:41;15.40;63.00
25616;DHT22;13482;48.234;13.006;2023-04-01T13:32:45;14.90;63.60
25616;DHT22;13482;48.234;13.006;2023-04-01T13:35:38;14.80;63.60
25616;DHT22;13482;48.234;13.006;2023-04-01T13:43:59;14.40;64.30
25616;DHT22;13482;48.234;13.006;2023-04-01T13:55:59;14.40;64.90
25616;DHT22;13482;48.234;13.006;2023-04-01T14:05:02;14.30;65.10
25616;DHT22;13482;48.234;13.006;2023-04-01T14:11:39;14.10;66.50
25616;DHT22;13482;48.234;13.006;2023-04-01T14:23:18;13.90;66.50
25616;DHT22;13482;48.234;13.006;2023-04-01T14:49:20;13.50;67.00
25616;DHT22;13482;48.234;13.006;2023-04-01T14:51:49;13.40;67.20
25616;DHT22;13482;48.234;13.006;2023-04-01T14:54:30;13.40;67.20
25616;DHT22;13482;48.234;13.006;2023-04-01T14:57:11;13.40;67.20
25616;DHT22;13482;48.234;13.006;2023-04-01T14:59:49;13.30;67.80
25616;DHT22;13482;48.234;13.006;2023-04-01T15:20:48;13.10;68.80
25616;DHT22;13482;48.234;13.006;2023-04-01T15:23:34;13.10;68.00
25616;DHT22;13482;48.234;13.006;2023-04-01T15:32:56;12.90;69.20
25616;DHT22;13482;48.234;13.006;2023-04-01T15:35:40;12.90;68.50
25616;DHT22;13482;48.234;13.006;2023-04-01T15:43:56;12.80;69.00
25616;DHT22;13482;48.234;13.006;2023-04-01T15:46:48;12.70;68.60
25616;DHT22;13482;48.234;13.006;2023-04-01T16:10:32;12.80;69.00
25616;DHT22;13482;48.234;13.006;2023-04-01T16:14:07;12.80;69.80
25616;DHT22;13482;48.234;13.006;2023-04-01T16:17:15;12.90;69.50
25616;DHT22;13482;48.234;13.006;2023-04-01T16:20:02;12.90;69.50
25616;DHT22;13482;48.234;13.006;2023-04-01T16:22:45;12.90;68.90
25616;DHT22;13482;48.234;13.006;2023-04-01T16:25:36;12.90;69.60
25616;DHT22;13482;48.234;13.006;2023-04-01T16:28:29;12.90;69.20
25616;DHT22;13482;48.234;13.006;2023-04-01T16:36:52;12.90;70.70
25616;DHT22;13482;48.234;13.006;2023-04-01T16:39:44;12.80;69.00
25616;DHT22;13482;48.234;13.006;2023-04-01T16:45:35;12.80;69.80
25616;DHT22;13482;48.234;13.006;2023-04-01T16:53:36;12.70;69.70
25616;DHT22;13482;48.234;13.006;2023-04-01T16:56:14;12.70;69.40
25616;DHT22;13482;48.234;13.006;2023-04-01T17:01:53;12.70;69.70
25616;DHT22;13482;48.234;13.006;2023-04-01T17:04:30;12.70;70.00
25616;DHT22;13482;48.234;13.006;2023-04-01T17:07:20;12.60;69.50
25616;DHT22;13482;48.234;13.006;2023-04-01T17:25:02;12.50;69.60
25616;DHT22;13482;48.234;13.006;2023-04-01T17:33:06;12.40;69.50
25616;DHT22;13482;48.234;13.006;2023-04-01T17:39:02;12.40;69.70
25616;DHT22;13482;48.234;13.006;2023-04-01T17:42:11;12.40;70.20
25616;DHT22;13482;48.234;13.006;2023-04-01T17:50:24;12.30;69.90
25616;DHT22;13482;48.234;13.006;2023-04-01T17:53:01;12.30;70.00
25616;DHT22;13482;48.234;13.006;2023-04-01T17:58:40;12.30;70.00
25616;DHT22;13482;48.234;13.006;2023-04-01T18:01:30;12.30;70.20
25616;DHT22;13482;48.234;13.006;2023-04-01T18:07:23;12.30;70.60
25616;DHT22;13482;48.234;13.006;2023-04-01T18:16:38;12.30;70.20
25616;DHT22;13482;48.234;13.006;2023-04-01T18:26:13;12.30;69.80
25616;DHT22;13482;48.234;13.006;2023-04-01T18:33:34;12.30;69.80
25616;DHT22;13482;48.234;13.006;2023-04-01T18:39:18;12.30;69.80
25616;DHT22;13482;48.234;13.006;2023-04-01T18:42:06;12.30;70.70
25616;DHT22;13482;48.234;13.006;2023-04-01T18:45:02;12.30;69.90
25616;DHT22;13482;48.234;13.006;2023-04-01T18:50:59;12.30;70.00
25616;DHT22;13482;48.234;13.006;2023-04-01T18:53:45;12.30;70.20
25616;DHT22;13482;48.234;13.006;2023-04-01T19:05:30;12.20;69.90
25616;DHT22;13482;48.234;13.006;2023-04-01T19:08:30;12.20;70.40
25616;DHT22;13482;48.234;13.006;2023-04-01T19:16:33;12.20;69.80
25616;DHT22;13482;48.234;13.006;2023-04-01T19:25:15;12.20;69.90
25616;DHT22;13482;48.234;13.006;2023-04-01T19:31:31;12.20;69.80
25616;DHT22;13482;48.234;13.006;2023-04-01T19:51:52;12.20;69.60
25616;DHT22;13482;48.234;13.006;2023-04-01T19:54:19;12.20;69.20
25616;DHT22;13482;48.234;13.006;2023-04-01T19:57:15;12.20;69.30
25616;DHT22;13482;48.234;13.006;2023-04-01T20:00:25;12.20;69.20
25616;DHT22;13482;48.234;13.006;2023-04-01T20:17:53;12.10;69.50
25616;DHT22;13482;48.234;13.006;2023-04-01T20:20:26;12.10;69.30
25616;DHT22;13482;48.234;13.006;2023-04-01T20:23:34;12.10;69.40
25616;DHT22;13482;48.234;13.006;2023-04-01T20:26:12;12.00;69.10
25616;DHT22;13482;48.234;13.006;2023-04-01T20:28:43;12.00;69.10
25616;DHT22;13482;48.234;13.006;2023-04-01T20:31:42;12.00;69.10
25616;DHT22;13482;48.234;13.006;2023-04-01T20:36:54;12.10;68.90
25616;DHT22;13482;48.234;13.006;2023-04-01T20:51:06;12.20;68.60
25616;DHT22;13482;48.234;13.006;2023-04-01T20:54:16;12.20;68.60
25616;DHT22;13482;48.234;13.006;2023-04-01T20:57:14;12.20;68.70
25616;DHT22;13482;48.234;13.006;2023-04-01T21:08:32;12.20;68.70
25616;DHT22;13482;48.234;13.006;2023-04-01T21:20:37;12.00;69.50
25616;DHT22;13482;48.234;13.006;2023-04-01T21:23:22;11.90;69.70
25616;DHT22;13482;48.234;13.006;2023-04-01T21:28:59;11.90;69.60
25616;DHT22;13482;48.234;13.006;2023-04-01T21:38:49;11.80;69.90
25616;DHT22;13482;48.234;13.006;2023-04-01T21:54:11;11.80;69.70
25616;DHT22;13482;48.234;13.006;2023-04-01T22:00:07;11.80;69.90
25616;DHT22;13482;48.234;13.006;2023-04-01T22:06:37;11.80;70.00
25616;DHT22;13482;48.234;13.006;2023-04-01T22:09:25;11.80;69.90
25616;DHT22;13482;48.234;13.006;2023-04-01T22:14:50;11.80;69.70
25616;DHT22;13482;48.234;13.006;2023-04-01T22:17:38;11.80;69.70
25616;DHT22;13482;48.234;13.006;2023-04-01T22:20:43;11.80;69.90
25616;DHT22;13482;48.234;13.006;2023-04-01T22:23:31;11.80;69.70
25616;DHT22;13482;48.234;13.006;2023-04-01T22:26:14;11.80;69.90
25616;DHT22;13482;48.234;13.006;2023-04-01T22:29:20;11.80;69.80
25616;DHT22;13482;48.234;13.006;2023-04-01T22:31:56;11.90;70.30
25616;DHT22;13482;48.234;13.006;2023-04-01T22:37:36;11.80;70.20
25616;DHT22;13482;48.234;13.006;2023-04-01T22:40:49;11.80;69.70
25616;DHT22;13482;48.234;13.006;2023-04-01T22:43:38;11.80;69.90
25616;DHT22;13482;48.234;13.006;2023-04-01T22:46:44;11.80;70.20
25616;DHT22;13482;48.234;13.006;2023-04-01T22:52:31;11.70;69.90
25616;DHT22;13482;48.234;13.006;2023-04-01T22:55:22;11.70;69.90
25616;DHT22;13482;48.234;13.006;2023-04-01T22:57:58;11.70;70.20
25616;DHT22;13482;48.234;13.006;2023-04-01T23:00:40;11.70;70.10
25616;DHT22;13482;48.234;13.006;2023-04-01T23:03:31;11.70;70.30
25616;DHT22;13482;48.234;13.006;2023-04-01T23:06:02;11.70;70.50
25616;DHT22;13482;48.234;13.006;2023-04-01T23:17:13;11.70;70.00
25616;DHT22;13482;48.234;13.006;2023-04-01T23:20:15;11.70;70.10
25616;DHT22;13482;48.234;13.006;2023-04-01T23:36:46;11.70;70.10
25616;DHT22;13482;48.234;13.006;2023-04-01T23:39:33;11.80;70.10
25616;DHT22;13482;48.234;13.006;2023-04-01T23:42:13;11.80;70.20
25616;DHT22;13482;48.234;13.006;2023-04-01T23:44:51;11.80;70.00
25616;DHT22;13482;48.234;13.006;2023-04-01T23:47:42;11.80;70.00
25616;DHT22;13482;48.234;13.006;2023-04-01T23:53:36;11.80;69.90
25616;DHT22;13482;48.234;13.006;2023-04-01T23:55:48;11.90;69.90
